Time;durP1;ratioP1;P1;durP2;ratioP2;P2;SDS_P1;SDS_P2;PMS_P1;PMS_P2;Temp;Humidity;BMP_temperature;BMP_pressure;BME280_temperature;BME280_humidity;BME280_pressure;Samples;Min_cycle;Max_cycle;Signal;HPM_P1;HPM_P2
2022/01/21 00:01:25;;;;;;;10.80;3.13;;;;;;;3.13;53.97;100709.78;5352217;32;36573;-59
2022/01/21 00:04:27;;;;;;;10.27;3.13;;;;;;;3.76;51.92;100715.53;5366535;32;34732;-60
2022/01/21 00:07:29;;;;;;;9.23;3.03;;;;;;;2.12;56.60;100718.56;5366299;32;35230;-59
2022/01/21 00:10:31;;;;;;;7.20;2.73;;;;;;;3.36;53.88;100709.69;5364642;32;34420;-59
2022/01/21 00:13:34;;;;;;;8.80;2.90;;;;;;;1.85;57.46;100711.63;5371184;32;35432;-69
2022/01/21 00:16:38;;;;;;;7.03;2.60;;;;;;;2.41;56.12;100715.13;5368480;32;34476;-61
2022/01/21 00:19:44;;;;;;;7.43;2.80;;;;;;;3.16;53.86;100687.28;5379553;32;35333;-61
2022/01/21 00:32:48;;;;;;;7.80;2.77;;;;;;;1.75;57.50;100738.41;5358912;32;44943;-67
2022/01/21 00:35:50;;;;;;;5.80;2.10;;;;;;;1.44;57.97;100729.66;5365737;32;34466;-60
2022/01/21 00:38:56;;;;;;;8.97;2.37;;;;;;;1.85;57.69;100724.59;5359390;32;35131;-68
2022/01/21 00:42:07;;;;;;;4.83;2.30;;;;;;;2.18;56.10;100720.31;5364696;32;35690;-61
2022/01/21 00:45:15;;;;;;;5.77;2.20;;;;;;;2.53;54.32;100691.75;5370221;32;35252;-61
2022/01/21 00:48:17;;;;;;;6.50;2.00;;;;;;;2.93;53.22;100715.91;5363331;32;44090;-60
2022/01/21 00:51:19;;;;;;;6.60;2.00;;;;;;;2.47;54.46;100719.44;5367559;32;35125;-68
2022/01/21 00:54:21;;;;;;;5.93;1.77;;;;;;;2.41;54.96;100726.38;5376599;32;35562;-66
2022/01/21 00:57:23;;;;;;;6.20;1.63;;;;;;;1.78;56.71;100707.28;5336418;32;33467;-59
2022/01/21 01:00:25;;;;;;;4.80;1.63;;;;;;;2.36;55.78;100711.66;5363066;32;35759;-68
2022/01/21 01:03:28;;;;;;;5.33;1.40;;;;;;;2.44;55.48;100707.31;5365730;32;35735;-60
2022/01/21 01:06:30;;;;;;;4.20;1.50;;;;;;;2.51;56.12;100715.97;5369496;32;34453;-59
2022/01/21 01:09:33;;;;;;;4.90;1.50;;;;;;;2.08;57.68;100726.38;5364322;32;34519;-60
2022/01/21 01:13:01;;;;;;;4.30;1.60;;;;;;;2.50;56.28;100728.06;5367256;32;34509;-67
2022/01/21 01:29:08;;;;;;;3.50;1.10;;;;;;;1.29;58.94;100717.53;5365636;32;35116;-69
2022/01/21 01:32:10;;;;;;;5.83;1.20;;;;;;;1.62;58.95;100721.09;5353884;32;35339;-61
2022/01/21 01:35:15;;;;;;;3.90;1.13;;;;;;;1.67;59.05;100726.28;5366669;32;35443;-69
2022/01/21 01:41:52;;;;;;;2.93;1.00;;;;;;;0.80;61.60;100721.59;5362980;32;35314;-61
2022/01/21 01:51:31;;;;;;;1.83;1.17;;;;;;;1.35;59.54;100714.06;5367364;32;34595;-68
2022/01/21 01:54:36;;;;;;;4.07;1.00;;;;;;;1.43;58.89;100733.13;5367621;32;34405;-61
2022/01/21 01:57:38;;;;;;;4.20;1.10;;;;;;;0.80;61.28;100730.22;5345996;32;36010;-69
2022/01/21 02:00:41;;;;;;;2.90;1.40;;;;;;;0.69;61.33;100744.81;5361436;32;35071;-61
2022/01/21 02:03:43;;;;;;;4.25;1.20;;;;;;;0.60;61.79;100746.47;5355768;32;33452;-61
2022/01/21 02:06:45;;;;;;;2.77;0.90;;;;;;;0.70;61.47;100745.66;5358444;32;36840;-61
2022/01/21 02:09:48;;;;;;;2.97;0.90;;;;;;;1.09;60.36;100739.84;5358265;32;44470;-67
2022/01/21 02:12:50;;;;;;;7.83;1.43;;;;;;;1.30;60.15;100755.53;5357435;32;35557;-66
2022/01/21 02:16:07;;;;;;;4.33;1.20;;;;;;;0.76;62.45;100754.34;5370734;32;34972;-67
2022/01/21 02:22:36;;;;;;;4.67;1.40;;;;;;;1.24;60.95;100747.72;5358597;32;35356;-67
2022/01/21 02:25:38;;;;;;;4.83;1.23;;;;;;;1.08;60.98;100740.72;5375402;32;35472;-61
2022/01/21 02:28:43;;;;;;;4.33;1.37;;;;;;;0.81;61.80;100744.03;5358007;32;35513;-59
2022/01/21 02:31:45;;;;;;;3.60;1.30;;;;;;;0.89;61.65;100729.41;5377810;32;35225;-60
2022/01/21 02:34:48;;;;;;;5.20;2.30;;;;;;;1.08;61.04;100723.47;5354548;32;48156;-67
2022/01/21 02:37:50;;;;;;;6.13;1.37;;;;;;;1.55;60.04;100733.16;5375707;32;35811;-67
2022/01/21 02:40:52;;;;;;;3.53;1.33;;;;;;;1.14;60.48;100724.34;5374113;32;35733;-67
2022/01/21 02:43:54;;;;;;;2.40;1.03;;;;;;;1.55;59.33;100721.94;5375964;32;34599;-66
2022/01/21 02:47:00;;;;;;;3.13;1.30;;;;;;;0.70;61.13;100718.06;5366822;32;36111;-59
2022/01/21 02:50:04;;;;;;;5.83;1.73;;;;;;;0.53;62.42;100701.59;5355442;32;34551;-67
2022/01/21 02:56:12;;;;;;;5.20;1.40;;;;;;;1.18;60.89;100695.91;5336444;32;35197;-69
2022/01/21 02:59:14;;;;;;;3.67;1.30;;;;;;;0.89;61.10;100724.22;5352186;32;35861;-62
2022/01/21 03:02:17;;;;;;;3.57;1.63;;;;;;;0.61;62.57;100724.94;5361603;32;44405;-67
2022/01/21 03:05:20;;;;;;;4.23;1.43;;;;;;;1.06;61.55;100722.59;5354187;32;35292;-67
2022/01/21 03:08:23;;;;;;;3.47;1.10;;;;;;;0.68;61.93;100734.47;5364795;32;35462;-67
2022/01/21 03:11:27;;;;;;;3.40;0.97;;;;;;;1.05;60.88;100738.13;5373810;32;35560;-60
2022/01/21 03:14:29;;;;;;;2.13;1.10;;;;;;;1.39;60.19;100744.31;5367440;32;35493;-60
2022/01/21 03:17:31;;;;;;;3.60;1.30;;;;;;;1.06;60.60;100745.03;5361671;32;35130;-68
2022/01/21 03:20:33;;;;;;;1.10;0.90;;;;;;;0.85;61.04;100750.97;5377812;32;35683;-60
2022/01/21 03:23:35;;;;;;;3.20;0.80;;;;;;;0.98;60.66;100744.12;5367656;32;35204;-61
2022/01/21 03:26:37;;;;;;;7.07;1.20;;;;;;;0.76;60.29;100748.28;5356024;32;34649;-61
2022/01/21 03:29:39;;;;;;;4.67;1.50;;;;;;;0.66;60.93;100742.22;5363319;32;35193;-69
2022/01/21 03:32:41;;;;;;;2.20;0.93;;;;;;;0.65;59.97;100742.22;5363625;32;36000;-60
2022/01/21 03:35:43;;;;;;;3.63;1.30;;;;;;;0.88;59.30;100730.25;5359358;32;35448;-61
2022/01/21 03:38:46;;;;;;;3.33;1.20;;;;;;;0.91;59.39;100729.44;5366505;32;38692;-61
2022/01/21 03:41:48;;;;;;;3.00;1.10;;;;;;;1.06;58.53;100711.37;5360435;32;44591;-61
2022/01/21 03:44:50;;;;;;;3.97;1.10;;;;;;;0.97;58.02;100714.81;5367090;32;36331;-68
2022/01/21 03:47:52;;;;;;;3.83;1.20;;;;;;;0.58;58.82;100706.78;5368570;32;35416;-60
2022/01/21 03:50:55;;;;;;;6.50;1.40;;;;;;;0.55;58.69;100730.91;5362469;32;34584;-67
2022/01/21 03:53:57;;;;;;;7.80;1.60;;;;;;;0.89;57.76;100720.78;5363007;32;35007;-59
2022/01/21 03:56:59;;;;;;;2.57;1.40;;;;;;;0.63;58.22;100744.75;5333329;32;34489;-67
2022/01/21 04:00:05;;;;;;;3.03;1.60;;;;;;;0.67;58.45;100736.19;5354340;32;35615;-67
2022/01/21 04:03:07;;;;;;;2.50;1.13;;;;;;;1.06;57.99;100747.62;5360405;32;35480;-59
2022/01/21 04:06:10;;;;;;;2.37;1.17;;;;;;;0.36;59.45;100760.06;5349157;32;35328;-59
2022/01/21 04:09:12;;;;;;;3.00;1.50;;;;;;;0.02;61.59;100774.41;5357789;32;35827;-59
2022/01/21 04:12:14;;;;;;;2.67;1.33;;;;;;;0.32;60.71;100787.62;5361822;32;35984;-68
2022/01/21 04:15:16;;;;;;;5.40;1.97;;;;;;;0.36;60.84;100797.13;5374529;32;43887;-59
2022/01/21 04:18:19;;;;;;;7.13;1.77;;;;;;;0.38;59.89;100794.56;5364797;32;34767;-59
2022/01/21 04:21:21;;;;;;;3.40;1.37;;;;;;;0.29;60.26;100794.50;5357846;32;35084;-67
2022/01/21 04:24:23;;;;;;;3.63;1.43;;;;;;;0.12;60.89;100800.34;5357085;32;35119;-68
2022/01/21 04:27:26;;;;;;;2.70;1.30;;;;;;;0.73;57.81;100806.06;5360262;32;34688;-67
2022/01/21 04:30:28;;;;;;;6.77;1.60;;;;;;;-0.11;59.43;100797.56;5356864;32;36520;-68
2022/01/21 04:33:30;;;;;;;5.77;1.27;;;;;;;-0.42;61.04;100792.87;5364242;32;35623;-67
2022/01/21 04:36:34;;;;;;;3.17;1.50;;;;;;;-0.14;59.82;100800.09;5357710;32;37047;-60
2022/01/21 04:39:41;;;;;;;4.55;1.35;;;;;;;-0.48;60.95;100810.88;5356095;32;34766;-59
2022/01/21 04:49:26;;;;;;;4.00;1.50;;;;;;;0.31;58.31;100827.25;5360471;32;34781;-59
2022/01/21 04:52:28;;;;;;;5.93;2.27;;;;;;;-0.36;59.59;100817.06;5361489;32;34205;-68
2022/01/21 04:55:30;;;;;;;3.70;1.50;;;;;;;-0.09;59.22;100820.81;5346515;32;33887;-59
2022/01/21 04:58:32;;;;;;;3.87;1.70;;;;;;;0.34;58.25;100832.47;5348503;32;34550;-59
2022/01/21 05:01:34;;;;;;;6.37;1.57;;;;;;;0.27;57.54;100843.59;5352674;32;35238;-61
2022/01/21 05:04:37;;;;;;;5.47;1.90;;;;;;;0.04;58.27;100838.19;5364083;32;35505;-68
2022/01/21 05:07:41;;;;;;;6.80;1.90;;;;;;;-0.20;58.57;100831.00;5363303;32;35807;-67
2022/01/21 05:10:43;;;;;;;5.43;2.00;;;;;;;-0.25;59.63;100832.69;5360208;32;34689;-67
2022/01/21 05:13:55;;;;;;;11.27;2.30;;;;;;;-0.12;58.61;100834.56;5355264;32;35290;-59
2022/01/21 05:17:04;;;;;;;10.27;1.63;;;;;;;-0.05;58.13;100810.53;5365539;32;34506;-67
2022/01/21 05:20:07;;;;;;;3.80;1.37;;;;;;;0.48;57.11;100811.91;5355016;32;35566;-59
2022/01/21 05:23:09;;;;;;;5.40;1.77;;;;;;;0.15;57.91;100822.81;5359898;32;35096;-67
2022/01/21 05:26:12;;;;;;;22.47;2.30;;;;;;;-0.26;58.66;100820.59;5362565;32;35151;-59
2022/01/21 05:29:14;;;;;;;2.87;1.37;;;;;;;-0.51;59.85;100836.69;5359555;32;34961;-61
2022/01/21 05:32:16;;;;;;;9.43;1.70;;;;;;;-0.34;59.17;100830.00;5361657;32;45123;-69
2022/01/21 05:35:18;;;;;;;8.47;1.57;;;;;;;-0.33;59.47;100830.00;5352060;32;34666;-69
2022/01/21 05:38:20;;;;;;;4.30;1.93;;;;;;;-0.40;59.62;100829.91;5361561;32;35833;-61
2022/01/21 05:41:24;;;;;;;4.10;2.07;;;;;;;-0.35;58.48;100838.59;5355760;32;36465;-61
2022/01/21 05:47:31;;;;;;;5.50;1.37;;;;;;;-0.27;58.92;100834.38;5360870;32;34457;-59
2022/01/21 05:50:33;;;;;;;8.47;1.73;;;;;;;-0.27;58.62;100842.12;5362152;32;34563;-61
2022/01/21 05:53:35;;;;;;;3.90;1.70;;;;;;;-0.32;58.92;100841.22;5359580;32;35206;-69
2022/01/21 05:56:38;;;;;;;3.77;1.50;;;;;;;-0.94;60.17;100841.22;5342113;32;35673;-69
2022/01/21 05:59:41;;;;;;;18.23;2.80;;;;;;;-0.71;59.65;100855.34;5368530;32;35103;-59
2022/01/21 06:02:43;;;;;;;8.25;2.00;;;;;;;-0.38;58.95;100862.69;5359195;32;35173;-60
2022/01/21 06:05:46;;;;;;;5.50;2.10;;;;;;;-0.59;59.29;100876.16;5364108;32;45381;-63
2022/01/21 06:08:48;;;;;;;4.97;1.60;;;;;;;-0.70;59.16;100879.44;5366707;32;34817;-60
2022/01/21 06:11:51;;;;;;;9.97;2.17;;;;;;;-0.60;59.19;100889.03;5357506;32;35133;-67
2022/01/21 06:14:53;;;;;;;2.75;1.48;;;;;;;-0.83;59.15;100906.78;5358781;32;35639;-69
2022/01/21 06:17:55;;;;;;;4.57;1.87;;;;;;;-0.42;58.27;100903.94;5373209;32;34958;-66
2022/01/21 06:20:57;;;;;;;6.33;1.97;;;;;;;-0.21;57.82;100924.00;5354426;32;35112;-59
2022/01/21 06:24:00;;;;;;;4.43;1.80;;;;;;;-0.85;59.43;100926.53;5362814;32;33793;-59
2022/01/21 06:27:04;;;;;;;7.43;2.97;;;;;;;-0.28;57.77;100933.38;5365115;32;35069;-60
2022/01/21 06:30:08;;;;;;;13.13;3.47;;;;;;;0.02;56.35;100939.81;5354193;32;35234;-60
2022/01/21 06:33:10;;;;;;;6.45;2.20;;;;;;;-0.35;57.02;100952.25;5358954;32;35359;-69
2022/01/21 06:36:13;;;;;;;10.03;2.77;;;;;;;-0.29;57.19;100945.44;5369452;32;36978;-60
2022/01/21 06:39:15;;;;;;;6.27;2.23;;;;;;;-0.09;56.49;100953.47;5356983;32;35103;-67
2022/01/21 06:42:22;;;;;;;8.17;1.77;;;;;;;-0.53;57.37;100970.03;5354932;32;44459;-62
2022/01/21 06:45:25;;;;;;;6.80;2.10;;;;;;;-1.00;59.06;100977.88;5352659;32;34726;-62
2022/01/21 06:48:27;;;;;;;7.10;2.10;;;;;;;-0.34;57.13;100983.25;5365016;32;34572;-62
2022/01/21 06:51:29;;;;;;;3.57;1.50;;;;;;;-0.48;57.04;100976.16;5350891;32;36049;-67
2022/01/21 06:54:31;;;;;;;6.20;1.90;;;;;;;-0.63;57.68;100990.56;5333098;32;35970;-72
2022/01/21 06:57:38;;;;;;;6.77;1.93;;;;;;;-0.29;56.47;100991.06;5332193;32;36119;-70
2022/01/21 07:00:40;;;;;;;6.17;2.20;;;;;;;-0.67;58.02;101005.97;5356874;32;35873;-62
2022/01/21 07:03:43;;;;;;;10.17;2.80;;;;;;;-0.45;57.35;101005.47;5347498;32;34649;-64
2022/01/21 07:06:45;;;;;;;11.87;3.10;;;;;;;-0.93;58.42;101005.53;5350867;32;34398;-69
2022/01/21 07:09:47;;;;;;;14.97;2.27;;;;;;;-0.43;58.15;101039.06;5352097;32;45072;-70
2022/01/21 07:12:50;;;;;;;9.27;1.97;;;;;;;-0.70;57.93;101036.91;5370127;32;35768;-63
2022/01/21 07:15:52;;;;;;;4.33;1.97;;;;;;;-0.61;57.99;101056.00;5353718;32;35903;-69
2022/01/21 07:18:55;;;;;;;5.57;1.70;;;;;;;0.10;56.03;101062.25;5364843;32;35453;-71
2022/01/21 07:21:57;;;;;;;6.13;1.90;;;;;;;-0.29;56.51;101048.78;5361872;32;34651;-61
2022/01/21 07:24:59;;;;;;;8.60;2.00;;;;;;;-0.76;57.61;101060.91;5354713;32;34501;-63
2022/01/21 07:28:01;;;;;;;2.87;1.53;;;;;;;-0.49;56.90;101051.88;5368176;32;35950;-70
2022/01/21 07:31:04;;;;;;;3.53;1.50;;;;;;;-0.32;56.24;101045.28;5353986;32;39299;-64
2022/01/21 07:34:09;;;;;;;18.35;3.00;;;;;;;-0.62;56.86;101049.09;5353140;32;34669;-64
2022/01/21 07:37:11;;;;;;;5.97;2.13;;;;;;;-0.77;57.25;101042.78;5361463;32;35924;-64
2022/01/21 07:40:13;;;;;;;13.37;2.63;;;;;;;-0.31;56.02;101044.44;5362897;32;34491;-65
2022/01/21 07:43:16;;;;;;;3.63;1.27;;;;;;;-0.49;56.08;101049.31;5360431;32;44534;-70
2022/01/21 07:46:19;;;;;;;9.17;1.73;;;;;;;-0.42;55.25;101064.91;5353705;32;43024;-66
2022/01/21 07:49:21;;;;;;;4.30;1.70;;;;;;;-0.72;56.61;101064.41;5347240;32;34876;-64
2022/01/21 07:52:23;;;;;;;6.27;1.93;;;;;;;-0.21;55.35;101061.81;5357531;32;35117;-68
2022/01/21 07:55:25;;;;;;;13.50;1.70;;;;;;;-0.69;56.26;101056.72;5340110;32;34669;-61
2022/01/21 07:58:28;;;;;;;5.67;1.70;;;;;;;-0.31;55.06;101059.94;5355898;32;34576;-60
2022/01/21 08:01:30;;;;;;;7.43;2.10;;;;;;;0.15;53.32;101050.28;5350833;32;35274;-59
2022/01/21 08:04:34;;;;;;;7.20;1.80;;;;;;;-0.87;55.20;101062.41;5348784;32;34788;-60
2022/01/21 08:07:39;;;;;;;4.18;1.60;;;;;;;-0.57;54.74;101052.62;5351644;32;35632;-71
2022/01/21 08:10:41;;;;;;;9.30;2.07;;;;;;;-0.51;54.90;101061.34;5357643;32;36146;-60
2022/01/21 08:13:43;;;;;;;17.43;2.43;;;;;;;-0.12;54.71;101061.09;5358937;32;35327;-72
2022/01/21 08:16:46;;;;;;;3.90;2.13;;;;;;;-0.41;54.89;101063.19;5370851;32;34421;-63
2022/01/21 08:19:48;;;;;;;5.83;1.73;;;;;;;-1.07;56.06;101069.78;5341114;32;44449;-73
2022/01/21 08:22:50;;;;;;;9.73;2.80;;;;;;;0.02;53.81;101062.16;5359856;32;34519;-62
2022/01/21 08:25:52;;;;;;;16.23;2.80;;;;;;;-0.46;55.45;101077.75;5351632;32;35769;-68
2022/01/21 08:28:56;;;;;;;9.63;2.20;;;;;;;-0.62;55.24;101079.22;5362821;32;35394;-72
2022/01/21 08:31:58;;;;;;;10.15;2.33;;;;;;;-0.59;55.47;101071.50;5360690;32;37311;-62
2022/01/21 08:35:01;;;;;;;4.27;1.80;;;;;;;-0.71;55.93;101072.19;5355823;32;36429;-70
2022/01/21 08:38:04;;;;;;;9.13;2.27;;;;;;;-0.55;54.95;101091.37;5349089;32;34439;-64
2022/01/21 08:41:07;;;;;;;9.68;2.78;;;;;;;-0.58;54.63;101101.63;5345954;32;37118;-66
2022/01/21 08:44:11;;;;;;;4.33;1.77;;;;;;;-0.45;54.34;101101.03;5346374;32;35116;-72
2022/01/21 08:47:15;;;;;;;6.40;1.80;;;;;;;-0.57;54.70;101108.56;5340104;32;34420;-66
2022/01/21 08:50:19;;;;;;;7.10;2.10;;;;;;;-0.56;53.69;101095.69;5340833;32;44242;-71
2022/01/21 08:53:38;;;;;;;6.22;1.73;;;;;;;-0.23;52.31;101102.25;5352581;32;34503;-68
2022/01/21 08:56:41;;;;;;;4.33;2.07;;;;;;;-0.29;53.16;101115.06;5328471;32;34424;-62
2022/01/21 08:59:44;;;;;;;11.05;2.45;;;;;;;-0.34;52.16;101108.94;5348118;32;35892;-67
2022/01/21 09:02:48;;;;;;;6.35;1.77;;;;;;;0.06;51.19;101114.75;5347756;32;43992;-63
2022/01/21 09:05:51;;;;;;;4.82;1.83;;;;;;;-0.39;52.28;101128.66;5356088;32;35830;-67
2022/01/21 09:08:53;;;;;;;6.00;1.77;;;;;;;-0.26;52.78;101130.59;5354862;32;34525;-70
2022/01/21 09:11:59;;;;;;;8.20;2.40;;;;;;;0.00;51.84;101128.47;5363623;32;36016;-65
2022/01/21 09:15:03;;;;;;;19.10;2.77;;;;;;;-0.53;53.48;101133.59;5355228;32;35801;-69
2022/01/21 09:18:09;;;;;;;5.77;1.70;;;;;;;-0.14;51.40;101138.56;5354930;32;35938;-70
2022/01/21 09:21:16;;;;;;;14.52;2.05;;;;;;;-0.41;52.06;101140.69;5351117;32;34800;-68
2022/01/21 09:24:19;;;;;;;8.17;2.17;;;;;;;-0.43;52.55;101130.34;5343316;32;44379;-69
2022/01/21 09:27:21;;;;;;;6.63;2.00;;;;;;;-0.25;51.94;101136.66;5355542;32;35387;-70
2022/01/21 09:30:28;;;;;;;4.55;1.45;;;;;;;-0.34;51.30;101129.63;5358171;32;34942;-69
2022/01/21 09:33:35;;;;;;;6.47;1.83;;;;;;;-0.06;49.70;101126.66;5372422;32;36666;-71
2022/01/21 09:36:42;;;;;;;4.07;1.23;;;;;;;0.02;49.65;101115.56;5341141;32;34477;-67
2022/01/21 09:39:44;;;;;;;6.43;1.03;;;;;;;-0.10;48.21;101098.16;5369901;32;34667;-70
2022/01/21 09:42:47;;;;;;;6.07;1.50;;;;;;;0.18;48.14;101109.75;5359864;32;44742;-64
2022/01/21 09:45:53;;;;;;;4.73;1.30;;;;;;;-0.16;48.74;101117.00;5354008;32;34168;-72
2022/01/21 09:49:07;;;;;;;3.90;1.20;;;;;;;0.08;47.46;101126.00;5364770;32;36322;-71
2022/01/21 09:52:12;;;;;;;3.67;1.60;;;;;;;0.18;47.95;101113.22;5359593;32;33538;-71
2022/01/21 09:55:17;;;;;;;13.00;2.83;;;;;;;-0.12;48.94;101117.94;5348471;32;34514;-61
2022/01/21 09:58:20;;;;;;;10.57;1.47;;;;;;;-0.01;49.33;101122.41;5350946;32;44527;-62
2022/01/21 10:01:25;;;;;;;5.73;1.60;;;;;;;0.55;47.90;101129.25;5352553;32;34482;-70
2022/01/21 10:04:33;;;;;;;4.73;1.40;;;;;;;0.54;47.62;101136.16;5356128;32;35873;-60
2022/01/21 10:07:39;;;;;;;4.67;1.53;;;;;;;0.54;48.28;101130.97;5357366;32;34628;-72
2022/01/21 10:10:42;;;;;;;2.90;1.07;;;;;;;0.83;48.23;101107.19;5342672;32;34918;-72
2022/01/21 10:13:48;;;;;;;3.57;1.70;;;;;;;1.21;47.52;101117.09;5367091;32;35580;-71
2022/01/21 10:16:51;;;;;;;5.80;1.80;;;;;;;1.17;47.88;101118.81;5342756;32;44744;-66
2022/01/21 10:19:53;;;;;;;13.03;2.33;;;;;;;0.94;48.71;101123.72;5366107;32;36425;-65
2022/01/21 10:23:16;;;;;;;8.37;2.87;;;;;;;1.48;47.63;101116.50;5352074;32;36805;-65
2022/01/21 10:26:19;;;;;;;10.07;2.40;;;;;;;2.43;45.95;101112.94;5321887;32;44428;-70
2022/01/21 10:29:22;;;;;;;13.13;2.13;;;;;;;2.18;45.79;101110.19;5365447;32;38305;-62
2022/01/21 10:32:40;;;;;;;17.80;3.22;;;;;;;1.99;46.70;101103.12;5360940;32;34360;-62
2022/01/21 10:36:26;;;;;;;10.93;2.20;;;;;;;2.43;45.14;101110.34;5358614;32;45062;-66
2022/01/21 10:39:30;;;;;;;4.20;1.80;;;;;;;1.84;47.66;101100.44;5349594;32;33929;-62
2022/01/21 10:42:32;;;;;;;12.77;2.62;;;;;;;1.25;49.14;101108.53;5356744;32;36979;-72
2022/01/21 10:45:48;;;;;;;3.67;1.83;;;;;;;1.40;49.58;101100.91;5344926;32;35844;-70
2022/01/21 10:49:12;;;;;;;8.20;2.30;;;;;;;1.69;49.05;101100.31;5348966;32;46538;-65
2022/01/21 10:52:15;;;;;;;7.40;2.17;;;;;;;1.49;50.02;101113.09;5357573;32;34444;-74
2022/01/21 10:55:28;;;;;;;9.35;2.10;;;;;;;0.81;52.40;101129.59;5332543;32;44646;-71
2022/01/21 10:58:40;;;;;;;5.10;2.07;;;;;;;0.42;52.96;101128.22;5352157;32;36339;-71
2022/01/21 11:01:58;;;;;;;7.23;2.50;;;;;;;0.33;53.39;101133.28;5354039;32;34816;-67
2022/01/21 11:05:05;;;;;;;19.87;3.10;;;;;;;0.67;53.29;101131.16;5354619;32;34721;-66
2022/01/21 11:08:10;;;;;;;11.33;3.17;;;;;;;0.61;52.88;101137.09;5366541;32;35265;-74
2022/01/21 11:11:12;;;;;;;;;;;;;;;0.75;52.81;101127.78;5360344;32;35177;-74
2022/01/21 11:14:18;;;;;;;12.10;3.17;;;;;;;1.73;50.75;101123.66;5356975;32;34923;-76
2022/01/21 11:17:20;;;;;;;6.40;3.00;;;;;;;1.19;51.12;101117.09;5353964;32;45047;-77
2022/01/21 11:20:35;;;;;;;14.17;2.97;;;;;;;0.98;51.76;101115.16;5356845;32;34444;-76
2022/01/21 11:23:38;;;;;;;8.77;2.53;;;;;;;1.01;51.91;101116.88;5363056;32;34924;-66
2022/01/21 11:26:40;;;;;;;12.23;2.90;;;;;;;0.98;51.99;101099.62;5363696;32;35534;-60
2022/01/21 11:29:46;;;;;;;9.63;3.40;;;;;;;0.97;51.94;101097.87;5369094;32;34658;-70
2022/01/21 11:32:48;;;;;;;9.47;2.50;;;;;;;1.19;51.00;101093.78;5345242;32;46267;-63
2022/01/21 11:35:52;;;;;;;12.43;3.10;;;;;;;1.50;50.04;101084.59;5358105;32;34440;-61
2022/01/21 11:38:55;;;;;;;7.28;2.67;;;;;;;1.26;50.85;101079.19;5357865;32;36257;-71
2022/01/21 11:41:59;;;;;;;8.70;3.15;;;;;;;2.49;48.56;101062.78;5368519;32;34458;-61
2022/01/21 11:45:18;;;;;;;12.33;3.50;;;;;;;2.61;48.45;101055.06;5355825;32;35638;-71
2022/01/21 11:51:32;;;;;;;8.07;2.97;;;;;;;3.07;46.67;101045.69;5358491;32;34462;-74
2022/01/21 11:54:36;;;;;;;5.23;2.37;;;;;;;3.57;45.11;101034.47;5358016;32;35975;-70
2022/01/21 11:57:38;;;;;;;8.75;3.03;;;;;;;2.10;47.46;101051.34;5343925;32;36184;-64
2022/01/21 12:00:41;;;;;;;14.17;4.10;;;;;;;2.09;49.12;101044.44;5359117;32;34329;-67
2022/01/21 12:03:55;;;;;;;6.35;3.08;;;;;;;2.65;47.28;101026.53;5355113;32;35812;-76
2022/01/21 12:06:58;;;;;;;5.62;2.58;;;;;;;2.74;47.70;101036.09;5348762;32;35557;-72
2022/01/21 12:10:05;;;;;;;22.08;3.58;;;;;;;1.77;47.49;101036.44;5357250;32;34633;-80
2022/01/21 12:13:16;;;;;;;8.33;2.27;;;;;;;3.41;45.11;101020.59;5363899;32;34756;-80
2022/01/21 12:16:57;;;;;;;9.40;3.07;;;;;;;3.35;44.43;101019.72;5356606;32;46421;-71
2022/01/21 12:20:06;;;;;;;16.43;2.57;;;;;;;3.31;44.32;101012.81;5358336;32;36033;-80
2022/01/21 12:23:11;;;;;;;8.97;2.70;;;;;;;3.46;44.21;101018.00;5355235;32;34886;-79
2022/01/21 12:26:20;;;;;;;10.10;3.00;;;;;;;4.50;41.84;101034.28;5351674;32;34694;-80
2022/01/21 12:29:24;;;;;;;5.70;2.00;;;;;;;4.56;42.08;101012.56;5347941;32;44727;-80
2022/01/21 12:32:53;;;;;;;5.97;2.53;;;;;;;4.00;42.47;101005.84;5354471;32;35768;-80
2022/01/21 12:35:56;;;;;;;8.93;2.47;;;;;;;2.87;45.72;101029.19;5355371;32;44378;-72
2022/01/21 12:42:20;;;;;;;7.67;1.83;;;;;;;3.44;43.56;101024.94;5351731;32;34608;-78
2022/01/21 12:45:24;;;;;;;6.30;2.10;;;;;;;2.29;45.75;101029.84;5349349;32;44484;-69
2022/01/21 12:48:33;;;;;;;7.97;1.93;;;;;;;2.18;46.65;101022.00;5346934;32;34576;-71
2022/01/21 12:58:31;;;;;;;6.90;2.30;;;;;;;2.56;46.24;101038.59;5358146;32;43484;-70
2022/01/21 13:01:39;;;;;;;6.27;2.23;;;;;;;1.78;48.25;101044.22;5361291;32;35831;-79
2022/01/21 13:04:46;;;;;;;8.53;2.57;;;;;;;2.25;46.81;101046.22;5364927;32;36039;-80
2022/01/21 13:08:23;;;;;;;8.03;2.03;;;;;;;2.41;46.99;101042.88;5376491;32;44482;-69
2022/01/21 13:11:28;;;;;;;9.23;2.20;;;;;;;1.79;48.23;101045.09;5343748;32;44584;-78
2022/01/21 13:17:32;;;;;;;6.50;1.97;;;;;;;1.50;48.98;101050.06;5358069;32;34589;-79
2022/01/21 13:20:38;;;;;;;11.67;3.70;;;;;;;1.76;47.11;101060.63;5359502;32;37158;-79
2022/01/21 13:23:51;;;;;;;9.97;2.27;;;;;;;2.04;46.09;101046.13;5366982;32;34995;-79
2022/01/21 13:26:54;;;;;;;8.77;1.90;;;;;;;1.90;46.36;101046.03;5366912;32;44887;-79
2022/01/21 13:29:58;;;;;;;5.23;1.40;;;;;;;3.18;42.77;101051.78;5364959;32;35423;-69
2022/01/21 13:33:10;;;;;;;11.13;2.70;;;;;;;3.06;41.77;101032.69;5362764;32;34380;-69
2022/01/21 13:36:13;;;;;;;7.63;2.30;;;;;;;2.92;42.78;101030.94;5354912;32;32841;-72
2022/01/21 13:39:28;;;;;;;7.37;2.10;;;;;;;2.76;42.51;101033.47;5375747;32;34631;-81
2022/01/21 13:42:33;;;;;;;7.20;1.90;;;;;;;2.52;42.96;101039.47;5360950;32;36252;-70
2022/01/21 13:45:36;;;;;;;9.33;2.13;;;;;;;1.93;44.54;101034.81;5360627;32;35183;-69
2022/01/21 13:48:40;;;;;;;8.73;2.47;;;;;;;2.73;42.76;101023.97;5365082;32;34436;-69
2022/01/21 13:51:53;;;;;;;10.20;2.10;;;;;;;3.41;41.21;101009.34;5362223;32;34593;-71
2022/01/21 13:54:55;;;;;;;13.20;1.83;;;;;;;3.69;40.14;101018.00;5353990;32;45186;-79
2022/01/21 13:57:59;;;;;;;9.97;2.53;;;;;;;2.50;43.19;101010.91;5345534;32;34543;-70
2022/01/21 14:01:09;;;;;;;8.77;2.20;;;;;;;2.82;42.70;101007.53;5353368;32;35663;-71
2022/01/21 14:04:12;;;;;;;10.53;1.87;;;;;;;3.14;42.57;100998.06;5348133;32;34582;-79
2022/01/21 14:07:27;;;;;;;9.30;1.73;;;;;;;4.22;39.97;100994.47;5365600;32;34631;-70
2022/01/21 14:10:30;;;;;;;7.17;1.83;;;;;;;3.29;42.25;101002.44;5348712;32;35732;-70
2022/01/21 14:13:37;;;;;;;6.93;1.70;;;;;;;4.17;39.62;100982.34;5367457;32;33741;-70
2022/01/21 14:16:43;;;;;;;6.43;1.70;;;;;;;3.91;39.81;100977.22;5361068;32;34738;-70
2022/01/21 14:19:46;;;;;;;18.50;2.33;;;;;;;3.10;40.62;100983.38;5362048;32;44464;-70
2022/01/21 14:22:49;;;;;;;7.63;1.47;;;;;;;2.99;39.36;100977.28;5356990;32;44496;-79
2022/01/21 14:25:53;;;;;;;10.17;1.80;;;;;;;1.81;41.96;100976.88;5361482;32;36033;-70
2022/01/21 14:28:59;;;;;;;9.88;2.08;;;;;;;2.22;41.55;100985.72;5373626;32;35428;-80
2022/01/21 14:32:22;;;;;;;5.27;1.60;;;;;;;2.36;41.72;100977.13;5368180;32;34460;-70
2022/01/21 14:35:30;;;;;;;9.60;2.00;;;;;;;2.27;42.45;100990.06;5357178;32;45191;-71
2022/01/21 14:38:34;;;;;;;5.63;1.70;;;;;;;2.18;42.74;101000.38;5374209;32;35635;-78
2022/01/21 14:41:42;;;;;;;8.10;2.03;;;;;;;2.02;43.13;101002.03;5360772;32;35832;-69
2022/01/21 14:44:57;;;;;;;4.97;1.70;;;;;;;1.73;43.41;101016.53;5360205;32;44366;-78
2022/01/21 14:48:18;;;;;;;3.83;1.50;;;;;;;1.39;44.87;101008.50;5364524;32;34422;-70
2022/01/21 14:51:23;;;;;;;7.90;2.10;;;;;;;2.15;43.32;101002.97;5360118;32;45908;-70
2022/01/21 14:54:26;;;;;;;7.93;2.50;;;;;;;2.32;42.35;101010.81;5376287;32;35428;-70
2022/01/21 14:57:29;;;;;;;5.30;1.10;;;;;;;2.71;41.43;101017.91;5339294;32;37812;-78
2022/01/21 15:00:43;;;;;;;7.77;1.43;;;;;;;2.15;40.77;101028.91;5361707;32;34435;-69
2022/01/21 15:03:46;;;;;;;;;;;;;;;1.91;40.60;101047.78;5353462;32;35850;-80
2022/01/21 15:06:48;;;;;;;5.10;1.97;;;;;;;1.72;41.60;101043.31;5364396;32;44501;-69
2022/01/21 15:09:54;;;;;;;5.73;1.80;;;;;;;1.67;41.77;101035.50;5356686;32;34450;-70
2022/01/21 15:16:19;;;;;;;8.90;2.10;;;;;;;2.19;40.44;101043.63;5364191;32;44428;-79
2022/01/21 15:19:45;;;;;;;13.43;1.80;;;;;;;2.13;40.48;101043.59;5365498;32;35626;-70
2022/01/21 15:22:47;;;;;;;10.27;1.97;;;;;;;1.57;41.86;101039.75;5361780;32;44660;-79
2022/01/21 15:25:50;;;;;;;7.03;2.10;;;;;;;1.96;41.25;101053.84;5363795;32;35868;-69
2022/01/21 15:29:03;;;;;;;4.20;1.57;;;;;;;1.39;42.41;101049.97;5369909;32;36136;-80
2022/01/21 15:32:06;;;;;;;5.03;1.87;;;;;;;1.97;41.50;101058.19;5357393;32;34466;-79
2022/01/21 15:35:10;;;;;;;5.53;1.65;;;;;;;1.67;41.48;101047.59;5361268;32;33506;-70